Time;durP1;ratioP1;P1;durP2;ratioP2;P2;SDS_P1;SDS_P2;PMS_P1;PMS_P2;Temp;Humidity;BMP_temperature;BMP_pressure;BME280_temperature;BME280_humidity;BME280_pressure;Samples;Min_cycle;Max_cycle;Signal;HPM_P1;HPM_P2
2022/10/27 00:00:17;;;;;;;928.15;865.17;;;;;;;13.78;73.53;101795.03;700549;28;46316;-64
2022/10/27 00:00:38;;;;;;;948.60;884.92;;;;;;;13.78;73.47;101799.63;701212;28;21529;-64
2022/10/27 00:00:59;;;;;;;940.13;876.72;;;;;;;13.79;73.42;101788.59;701986;28;1253;-64
2022/10/27 00:01:21;;;;;;;942.30;879.03;;;;;;;13.79;73.36;101793.16;700619;28;44347;-64
2022/10/27 00:01:43;;;;;;;941.95;878.55;;;;;;;13.78;73.37;101788.75;700185;28;46382;-64
2022/10/27 00:02:04;;;;;;;943.22;879.67;;;;;;;13.78;73.52;101795.03;701297;28;22403;-64
2022/10/27 00:02:26;;;;;;;939.25;875.88;;;;;;;13.78;73.67;101799.63;701320;28;23477;-64
2022/10/27 00:02:47;;;;;;;942.33;878.83;;;;;;;13.78;73.61;101797.75;699546;28;67472;-64
2022/10/27 00:03:10;;;;;;;946.15;882.53;;;;;;;13.77;73.50;101793.31;701366;28;23435;-64
2022/10/27 00:03:31;;;;;;;938.08;874.67;;;;;;;13.78;73.52;101796.91;700013;28;46311;-64
2022/10/27 00:03:52;;;;;;;933.58;870.33;;;;;;;13.77;73.47;101796.03;701417;28;22402;-64
2022/10/27 00:04:14;;;;;;;945.45;881.92;;;;;;;13.76;73.30;101796.22;700237;28;46331;-64
2022/10/27 00:04:35;;;;;;;935.67;872.45;;;;;;;13.76;73.33;101794.38;700494;28;46306;-64
2022/10/27 00:05:03;;;;;;;937.75;874.25;;;;;;;13.75;73.31;101802.69;699653;28;59597;-64
2022/10/27 00:05:25;;;;;;;942.55;879.03;;;;;;;13.73;73.26;101799.25;700614;28;45126;-64
2022/10/27 00:05:47;;;;;;;934.10;870.90;;;;;;;13.73;73.28;101799.25;701388;28;22402;-64
2022/10/27 00:06:08;;;;;;;930.85;867.80;;;;;;;13.65;73.44;101782.00;699722;28;70394;-64
2022/10/27 00:06:29;;;;;;;939.72;876.35;;;;;;;13.73;73.26;101797.41;701485;28;21509;-64
2022/10/27 00:06:50;;;;;;;936.78;873.47;;;;;;;13.70;73.48;101801.31;701178;28;21328;-64
2022/10/27 00:07:12;;;;;;;941.65;878.17;;;;;;;13.70;73.62;101801.31;700777;28;23256;-64
2022/10/27 00:07:36;;;;;;;945.85;882.25;;;;;;;13.69;73.45;101806.91;701214;28;23412;-64
2022/10/27 00:07:57;;;;;;;938.72;875.33;;;;;;;13.70;73.63;101805.91;698938;28;92231;-64
2022/10/27 00:08:19;;;;;;;948.47;884.78;;;;;;;13.68;73.75;101795.22;699894;28;23526;-64
2022/10/27 00:08:42;;;;;;;943.72;880.15;;;;;;;13.68;73.98;101803.38;699220;28;69529;-64
2022/10/27 00:09:03;;;;;;;935.83;872.55;;;;;;;13.67;73.80;101806.25;700518;28;43987;-64
2022/10/27 00:09:24;;;;;;;944.63;881.10;;;;;;;13.67;73.87;101803.53;700640;28;44360;-64
2022/10/27 00:09:45;;;;;;;939.67;876.33;;;;;;;13.65;74.01;101809.13;701382;28;22435;-64
2022/10/27 00:10:08;;;;;;;932.00;868.97;;;;;;;13.65;73.60;101798.28;701385;28;21527;-64
2022/10/27 00:10:30;;;;;;;945.13;881.72;;;;;;;13.65;73.80;101803.69;699765;28;69432;-64
2022/10/27 00:10:56;;;;;;;938.97;875.78;;;;;;;13.64;73.94;101796.56;700548;28;44535;-64
2022/10/27 00:11:17;;;;;;;943.67;880.20;;;;;;;13.64;73.72;101815.56;697289;28;137832;-64
2022/10/27 00:11:38;;;;;;;937.47;874.15;;;;;;;13.62;74.05;101798.63;701330;28;21529;-64
2022/10/27 00:12:00;;;;;;;944.70;881.15;;;;;;;13.63;73.79;101813.03;701483;28;21576;-64
2022/10/27 00:12:22;;;;;;;934.33;871.13;;;;;;;13.61;74.29;101802.34;700544;28;45076;-64
2022/10/27 00:12:43;;;;;;;936.65;873.40;;;;;;;13.60;73.86;101807.94;700543;28;45228;-64
2022/10/27 00:13:05;;;;;;;951.33;887.47;;;;;;;13.59;74.30;101809.81;701154;28;22413;-64
2022/10/27 00:13:27;;;;;;;944.35;880.78;;;;;;;13.59;74.02;101814.38;701429;28;22971;-64
2022/10/27 00:13:49;;;;;;;936.17;872.88;;;;;;;13.59;73.98;101811.66;699918;28;46281;-64
2022/10/27 00:14:10;;;;;;;941.08;877.70;;;;;;;13.58;74.51;101818.97;700464;28;46398;-64
2022/10/27 00:14:31;;;;;;;939.75;876.42;;;;;;;13.59;73.98;101817.09;701387;28;23480;-64
2022/10/27 00:14:52;;;;;;;942.95;879.47;;;;;;;13.57;74.32;101811.84;701331;28;23760;-64
2022/10/27 00:15:13;;;;;;;945.35;881.75;;;;;;;13.56;74.14;101815.59;701152;28;22480;-64
2022/10/27 00:15:36;;;;;;;941.78;878.40;;;;;;;13.57;74.54;101811.84;697761;28;46360;-64
2022/10/27 00:15:59;;;;;;;931.78;868.60;;;;;;;13.56;74.08;101812.88;699393;28;897;-64
2022/10/27 00:16:21;;;;;;;938.53;875.15;;;;;;;13.57;74.53;101816.41;699985;28;1621;-64
2022/10/27 00:16:42;;;;;;;938.90;875.58;;;;;;;13.57;74.24;101817.25;701327;28;23380;-64
2022/10/27 00:17:04;;;;;;;939.63;876.03;;;;;;;13.56;74.35;101814.72;700712;28;21524;-64
2022/10/27 00:17:25;;;;;;;934.03;870.53;;;;;;;13.56;74.41;101814.72;700281;28;46604;-64
2022/10/27 00:17:46;;;;;;;932.45;869.25;;;;;;;13.56;74.17;101821.00;701324;28;22359;-64
2022/10/27 00:18:09;;;;;;;931.72;868.63;;;;;;;13.56;74.42;101820.16;701086;28;22497;-64
2022/10/27 00:18:31;;;;;;;937.70;874.30;;;;;;;13.55;74.60;101819.31;699361;28;67612;-64
2022/10/27 00:18:53;;;;;;;955.38;891.47;;;;;;;13.55;74.46;101819.31;700975;28;23374;-64
2022/10/27 00:19:14;;;;;;;940.15;876.80;;;;;;;13.55;74.54;101816.59;700512;28;44392;-64
2022/10/27 00:19:35;;;;;;;931.47;868.40;;;;;;;13.50;74.45;101816.25;701236;28;21363;-64
2022/10/27 00:19:56;;;;;;;943.28;879.75;;;;;;;13.54;74.31;101820.31;700384;28;44377;-64
2022/10/27 00:20:18;;;;;;;934.28;871.08;;;;;;;13.55;74.70;101818.47;701461;28;23455;-64
2022/10/27 00:20:39;;;;;;;931.72;868.58;;;;;;;13.54;74.70;101820.31;700600;28;46286;-64
2022/10/27 00:21:02;;;;;;;940.10;876.72;;;;;;;13.54;74.49;101823.03;701456;28;22289;-64
2022/10/27 00:21:23;;;;;;;946.25;882.58;;;;;;;13.51;74.59;101821.53;701311;28;22070;-64
2022/10/27 00:21:44;;;;;;;948.58;884.80;;;;;;;13.53;74.64;101815.91;701380;28;22398;-64
2022/10/27 00:22:06;;;;;;;950.72;887.00;;;;;;;13.52;74.86;101816.94;701428;28;22281;-64
2022/10/27 00:22:27;;;;;;;940.58;877.17;;;;;;;13.51;74.70;101824.22;700462;28;44374;-64
2022/10/27 00:22:49;;;;;;;932.05;868.83;;;;;;;13.51;74.69;101824.22;701345;28;22567;-64
2022/10/27 00:23:10;;;;;;;941.28;877.78;;;;;;;13.50;74.46;101818.97;701297;28;21516;-64
2022/10/27 00:23:31;;;;;;;936.53;873.17;;;;;;;13.49;74.68;101820.84;700848;28;21521;-64
2022/10/27 00:23:53;;;;;;;943.38;879.78;;;;;;;13.49;74.85;101815.44;700537;28;44369;-64
2022/10/27 00:24:14;;;;;;;946.75;883.08;;;;;;;13.49;74.91;101823.56;700328;28;46322;-64
2022/10/27 00:24:35;;;;;;;946.08;882.40;;;;;;;13.48;74.75;101818.31;701256;28;22385;-64
2022/10/27 00:24:56;;;;;;;943.55;880.03;;;;;;;13.47;74.56;101822.88;701407;28;21537;-64
2022/10/27 00:25:19;;;;;;;937.08;873.67;;;;;;;13.46;74.84;101826.63;701355;28;22385;-64
2022/10/27 00:25:41;;;;;;;935.13;871.83;;;;;;;13.46;74.93;101820.31;699476;28;69450;-64
2022/10/27 00:26:03;;;;;;;935.03;871.75;;;;;;;13.45;74.66;101827.63;700575;28;46326;-64
2022/10/27 00:26:24;;;;;;;938.00;874.63;;;;;;;13.44;74.76;101834.06;700521;28;45473;-64
2022/10/27 00:26:46;;;;;;;949.55;885.83;;;;;;;13.44;74.96;101827.78;701414;28;23483;-64
2022/10/27 00:27:08;;;;;;;944.15;880.33;;;;;;;13.44;74.71;101827.78;699836;28;46331;-64
2022/10/27 00:27:29;;;;;;;937.05;873.70;;;;;;;13.43;74.97;101835.09;700473;28;46666;-64
2022/10/27 00:27:50;;;;;;;933.75;870.63;;;;;;;13.43;74.70;101829.66;700527;28;22538;-64
2022/10/27 00:28:12;;;;;;;933.40;870.35;;;;;;;13.42;75.25;101829.84;701038;28;23416;-64
2022/10/27 00:28:34;;;;;;;935.42;872.28;;;;;;;13.43;75.25;101834.22;700677;28;21468;-64
2022/10/27 00:28:55;;;;;;;947.47;883.95;;;;;;;13.42;74.89;101835.28;700317;28;44387;-64
2022/10/27 00:29:16;;;;;;;949.00;885.30;;;;;;;13.42;75.33;101833.38;701030;28;23474;-64
2022/10/27 00:29:37;;;;;;;943.03;879.50;;;;;;;13.41;75.06;101833.56;701014;28;21538;-64
2022/10/27 00:29:59;;;;;;;947.83;884.10;;;;;;;13.40;75.16;101832.72;701321;28;22429;-64
2022/10/27 00:30:23;;;;;;;944.35;880.80;;;;;;;13.41;75.00;101828.13;700902;28;36360;-64
2022/10/27 00:30:44;;;;;;;933.78;870.53;;;;;;;13.41;75.25;101830.84;700376;28;46315;-64
2022/10/27 00:31:08;;;;;;;938.72;875.45;;;;;;;13.40;75.45;101832.72;700638;28;21380;-64
2022/10/27 00:31:30;;;;;;;942.75;879.22;;;;;;;13.41;75.47;101837.13;699572;28;67486;-64
2022/10/27 00:31:51;;;;;;;962.08;897.85;;;;;;;13.41;75.33;101841.69;700224;28;45173;-64
2022/10/27 00:32:13;;;;;;;963.03;898.78;;;;;;;13.41;75.40;101828.13;700085;28;46294;-64
2022/10/27 00:32:34;;;;;;;943.33;879.78;;;;;;;13.42;75.56;101832.56;701095;28;23439;-64
2022/10/27 00:32:56;;;;;;;951.92;888.05;;;;;;;13.39;75.62;101824.75;701154;28;21532;-64
2022/10/27 00:33:17;;;;;;;930.28;867.17;;;;;;;13.40;75.48;101829.13;700539;28;46322;-64
2022/10/27 00:33:38;;;;;;;928.40;865.22;;;;;;;13.40;75.38;101837.28;699886;28;44536;-64
2022/10/27 00:34:00;;;;;;;928.47;865.40;;;;;;;13.39;75.43;101831.00;701264;28;21295;-64
2022/10/27 00:34:22;;;;;;;932.65;869.38;;;;;;;13.40;75.31;101831.84;701067;28;22232;-64
2022/10/27 00:34:43;;;;;;;943.40;879.72;;;;;;;13.38;75.35;101834.72;699663;28;67600;-64
2022/10/27 00:35:05;;;;;;;946.45;882.67;;;;;;;13.38;75.15;101842.88;700942;28;22403;-64
2022/10/27 00:35:26;;;;;;;937.90;874.45;;;;;;;13.38;75.53;101829.31;700342;28;46209;-64
2022/10/27 00:35:47;;;;;;;943.47;879.83;;;;;;;13.39;75.30;101830.19;701034;28;22393;-64
2022/10/27 00:36:11;;;;;;;947.97;884.17;;;;;;;13.39;75.20;101836.44;701229;28;21523;-64
2022/10/27 00:36:34;;;;;;;946.92;883.22;;;;;;;13.38;75.16;101834.72;700788;28;37721;-64
2022/10/27 00:36:55;;;;;;;935.42;872.05;;;;;;;13.39;75.28;101835.59;700042;28;45203;-64
2022/10/27 00:37:16;;;;;;;929.80;866.58;;;;;;;13.39;75.30;101841.03;701197;28;22369;-64
2022/10/27 00:37:38;;;;;;;936.90;873.50;;;;;;;13.40;75.63;101838.16;700952;28;23428;-64
2022/10/27 00:37:59;;;;;;;945.33;881.75;;;;;;;13.41;75.49;101841.69;700211;28;46321;-64
2022/10/27 00:38:21;;;;;;;939.50;876.10;;;;;;;13.40;75.49;101838.16;701416;28;21813;-64
2022/10/27 00:38:42;;;;;;;950.42;886.63;;;;;;;13.42;75.71;101838.81;699901;28;46125;-64
2022/10/27 00:39:04;;;;;;;951.65;887.88;;;;;;;13.43;75.93;101840.53;701241;28;22401;-64
2022/10/27 00:39:26;;;;;;;936.90;873.55;;;;;;;13.44;75.55;101841.38;700287;28;45299;-64
2022/10/27 00:39:47;;;;;;;946.33;882.70;;;;;;;13.44;75.63;101838.66;700564;28;45216;-64
2022/10/27 00:40:09;;;;;;;949.25;885.50;;;;;;;13.44;75.60;101834.06;701153;28;22380;-64
2022/10/27 00:40:37;;;;;;;924.88;861.92;;;;;;;13.44;75.50;101839.50;700602;28;46341;-64
2022/10/27 00:40:59;;;;;;;934.05;870.80;;;;;;;13.45;75.56;101837.66;696482;28;159391;-64
2022/10/27 00:41:24;;;;;;;930.22;867.08;;;;;;;13.46;75.30;101840.19;699809;28;46327;-64
2022/10/27 00:41:46;;;;;;;933.92;870.55;;;;;;;13.46;75.26;101834.75;695965;28;138122;-64
2022/10/27 00:42:09;;;;;;;930.20;867.05;;;;;;;13.47;75.58;101841.03;699334;28;22400;-64
2022/10/27 00:42:30;;;;;;;937.92;874.53;;;;;;;13.46;75.24;101832.06;699677;28;69399;-64
2022/10/27 00:42:51;;;;;;;934.03;870.70;;;;;;;13.46;75.57;101840.19;700239;28;45369;-64
2022/10/27 00:43:26;;;;;;;930.78;867.50;;;;;;;13.47;75.35;101838.31;700959;28;22412;-64
2022/10/27 00:43:48;;;;;;;943.25;879.47;;;;;;;13.46;75.05;101836.59;696355;28;137781;-64
2022/10/27 00:44:33;;;;;;;939.10;875.47;;;;;;;13.45;75.19;101835.78;699733;28;46403;-64
2022/10/27 00:44:54;;;;;;;932.75;869.33;;;;;;;13.44;75.29;101836.78;696606;28;136014;-64
2022/10/27 00:45:16;;;;;;;939.05;875.53;;;;;;;13.45;75.27;101834.94;701211;28;22213;-64
2022/10/27 00:45:38;;;;;;;927.25;864.30;;;;;;;13.44;75.41;101834.06;701111;28;22338;-64
2022/10/27 00:46:01;;;;;;;933.22;870.13;;;;;;;13.45;75.53;101833.06;700339;28;46359;-64
2022/10/27 00:46:29;;;;;;;933.00;869.90;;;;;;;13.45;75.34;101837.66;698805;28;92257;-64
2022/10/27 00:46:50;;;;;;;936.45;873.10;;;;;;;13.41;75.63;101836.28;697094;28;139121;-64
2022/10/27 00:47:18;;;;;;;943.70;879.88;;;;;;;13.45;75.48;101843.06;701255;28;22403;-64
2022/10/27 00:47:40;;;;;;;935.08;871.75;;;;;;;13.43;75.27;101837.81;700018;28;136133;-64
2022/10/27 00:48:02;;;;;;;934.22;871.00;;;;;;;13.44;75.67;101844.06;703294;28;45260;-64
2022/10/27 00:48:24;;;;;;;938.13;874.80;;;;;;;13.40;75.55;101840.00;704072;28;22478;-64
2022/10/27 00:48:45;;;;;;;936.33;873.03;;;;;;;13.42;75.33;101840.69;701664;28;69398;-64
2022/10/27 00:49:10;;;;;;;942.30;878.80;;;;;;;13.41;75.60;101842.53;699852;28;23468;-64
2022/10/27 00:49:35;;;;;;;964.17;899.97;;;;;;;13.40;75.46;101842.72;698141;28;114957;-64
2022/10/27 00:50:00;;;;;;;958.60;894.55;;;;;;;13.40;75.52;101846.28;698092;28;114892;-64
2022/10/27 00:50:23;;;;;;;941.38;877.88;;;;;;;13.39;75.53;101841.03;698077;28;115915;-64
2022/10/27 00:50:45;;;;;;;947.38;883.70;;;;;;;13.37;75.59;101843.91;699493;28;69417;-64
2022/10/27 00:51:07;;;;;;;934.75;871.47;;;;;;;13.38;75.75;101852.88;700614;28;44911;-64
2022/10/27 00:51:28;;;;;;;932.40;869.30;;;;;;;13.38;75.39;101848.31;700403;28;46377;-64
2022/10/27 00:51:53;;;;;;;938.90;875.55;;;;;;;13.38;75.82;101844.75;700793;28;21520;-64
2022/10/27 00:52:19;;;;;;;942.97;879.50;;;;;;;13.38;75.53;101847.47;694849;28;115090;-64
2022/10/27 00:52:45;;;;;;;946.80;883.10;;;;;;;13.39;75.58;101851.88;693220;28;161062;-64
2022/10/27 00:53:06;;;;;;;942.25;878.72;;;;;;;13.38;75.47;101850.19;694920;28;113563;-64
2022/10/27 00:53:27;;;;;;;944.05;880.53;;;;;;;13.38;75.89;101852.88;698147;28;22376;-64
2022/10/27 00:53:49;;;;;;;944.38;880.78;;;;;;;13.39;75.74;101851.88;696290;28;46299;-64
2022/10/27 00:54:11;;;;;;;935.20;871.97;;;;;;;13.37;75.66;101843.03;698451;28;22406;-64
2022/10/27 00:54:35;;;;;;;942.17;878.78;;;;;;;13.36;75.91;101850.34;697518;28;44152;-64
2022/10/27 00:54:59;;;;;;;938.05;874.83;;;;;;;13.36;75.58;101852.22;695601;28;90733;-64
2022/10/27 00:55:24;;;;;;;942.30;878.92;;;;;;;13.34;75.46;101845.09;695329;28;115450;-64
2022/10/27 00:55:47;;;;;;;935.03;871.63;;;;;;;13.35;75.72;101851.34;695072;28;115052;-64
2022/10/27 00:56:09;;;;;;;946.15;882.47;;;;;;;13.36;75.40;101853.06;696201;28;90326;-64
2022/10/27 00:56:30;;;;;;;954.17;890.22;;;;;;;13.36;75.64;101860.38;698529;28;23458;-64
2022/10/27 00:56:53;;;;;;;938.28;874.83;;;;;;;13.34;75.79;101855.94;697576;28;46340;-64
2022/10/27 00:57:15;;;;;;;945.85;881.83;;;;;;;13.35;75.80;101848.63;697113;28;45329;-64
2022/10/27 00:57:37;;;;;;;945.67;881.88;;;;;;;13.34;75.92;101847.81;696758;28;69411;-64
2022/10/27 00:58:01;;;;;;;939.33;875.88;;;;;;;13.35;75.76;101854.06;697521;28;45262;-64
2022/10/27 00:58:22;;;;;;;936.13;872.70;;;;;;;13.34;75.80;101855.94;695647;28;90133;-64
2022/10/27 00:58:45;;;;;;;931.72;868.53;;;;;;;13.35;75.66;101851.34;698467;28;4586;-64
2022/10/27 00:59:06;;;;;;;938.95;875.47;;;;;;;13.34;75.94;101855.09;697413;28;44379;-64
2022/10/27 00:59:27;;;;;;;941.00;877.53;;;;;;;13.34;75.62;101861.38;697852;28;46230;-64
2022/10/27 00:59:48;;;;;;;942.97;879.42;;;;;;;13.32;75.73;101863.38;698431;28;22496;-64
2022/10/27 01:00:10;;;;;;;945.20;881.58;;;;;;;13.32;75.44;101863.38;698103;28;22400;-64
2022/10/27 01:00:32;;;;;;;937.60;874.20;;;;;;;13.33;75.73;101869.69;697804;28;46170;-65
2022/10/27 01:00:54;;;;;;;939.17;875.70;;;;;;;13.32;75.93;101860.66;698295;28;23475;-65
2022/10/27 01:01:15;;;;;;;940.58;877.08;;;;;;;13.32;76.01;101859.78;696789;28;69437;-65
2022/10/27 01:01:37;;;;;;;942.10;878.60;;;;;;;13.31;75.94;101867.09;698290;28;21967;-65
2022/10/27 01:01:58;;;;;;;938.85;875.33;;;;;;;13.32;75.66;101857.09;697431;28;44358;-65
2022/10/27 01:02:19;;;;;;;935.78;872.45;;;;;;;13.31;75.84;101861.66;698378;28;22369;-65
2022/10/27 01:02:41;;;;;;;936.20;872.90;;;;;;;13.31;75.92;101858.13;698384;28;22349;-65
2022/10/27 01:03:02;;;;;;;938.85;875.45;;;;;;;13.30;75.84;101865.38;697517;28;44442;-65
2022/10/27 01:03:24;;;;;;;941.17;877.85;;;;;;;13.29;75.78;101866.44;698202;28;23465;-65
2022/10/27 01:03:45;;;;;;;944.22;880.83;;;;;;;13.30;75.80;101867.25;695203;28;23506;-65
2022/10/27 01:04:07;;;;;;;942.45;879.05;;;;;;;13.30;76.23;101864.56;694757;28;46283;-65
2022/10/27 01:04:33;;;;;;;966.05;901.92;;;;;;;13.29;75.75;101863.72;694940;28;46413;-65
2022/10/27 01:04:58;;;;;;;974.70;910.13;;;;;;;13.30;76.27;101868.09;691803;28;136807;-65
2022/10/27 01:05:21;;;;;;;946.67;882.92;;;;;;;13.29;76.01;101866.44;694521;28;114955;-65
2022/10/27 01:05:43;;;;;;;932.28;869.13;;;;;;;13.29;75.96;101873.69;696853;28;69371;-65
2022/10/27 01:06:04;;;;;;;943.50;880.03;;;;;;;13.28;76.24;101872.84;697626;28;46379;-65
2022/10/27 01:06:26;;;;;;;947.53;883.90;;;;;;;13.28;76.07;101862.00;697720;28;46339;-65
2022/10/27 01:06:47;;;;;;;947.35;883.65;;;;;;;13.28;76.18;101867.44;698519;28;22434;-65
2022/10/27 01:07:09;;;;;;;952.67;888.58;;;;;;;13.28;76.14;101870.13;697849;28;22354;-65
2022/10/27 01:07:30;;;;;;;943.10;879.47;;;;;;;13.28;76.19;101877.44;697474;28;45495;-65
2022/10/27 01:07:55;;;;;;;949.85;886.08;;;;;;;13.28;76.03;101872.84;697729;28;43700;-65
2022/10/27 01:08:16;;;;;;;956.78;892.78;;;;;;;13.29;76.28;101873.69;695907;28;90664;-65
2022/10/27 01:08:39;;;;;;;949.30;885.55;;;;;;;13.28;76.45;101872.84;696971;28;46314;-65
2022/10/27 01:09:00;;;;;;;934.50;871.28;;;;;;;13.28;75.99;101870.13;697692;28;44386;-65
2022/10/27 01:09:21;;;;;;;952.00;888.17;;;;;;;13.28;76.21;101872.84;697546;28;46508;-65
2022/10/27 01:09:43;;;;;;;945.10;881.50;;;;;;;13.28;76.12;101870.13;698317;28;22383;-65
2022/10/27 01:10:05;;;;;;;940.55;877.13;;;;;;;13.27;76.38;101871.16;698466;28;21547;-65
2022/10/27 01:10:27;;;;;;;943.10;879.60;;;;;;;13.27;76.12;101873.84;694099;28;69399;-65
2022/10/27 01:10:49;;;;;;;956.33;892.42;;;;;;;13.27;76.06;101873.84;695639;28;22180;-65
2022/10/27 01:11:11;;;;;;;955.58;890.42;;;;;;;13.28;76.21;101874.72;693335;28;67475;-65
2022/10/27 01:11:32;;;;;;;942.53;878.40;;;;;;;13.27;76.00;101867.59;698062;28;21280;-65
2022/10/27 01:11:54;;;;;;;935.30;872.05;;;;;;;13.27;76.15;101864.88;698277;28;21525;-65
2022/10/27 01:12:15;;;;;;;943.40;879.92;;;;;;;13.27;76.32;101871.16;697349;28;46379;-65
2022/10/27 01:12:36;;;;;;;942.58;879.17;;;;;;;13.28;75.93;101872.00;697254;28;46447;-65
2022/10/27 01:12:58;;;;;;;940.85;877.53;;;;;;;13.26;76.04;101876.75;698446;28;21325;-65
2022/10/27 01:13:20;;;;;;;944.88;881.42;;;;;;;13.25;76.09;101867.75;697684;28;44359;-65
2022/10/27 01:13:41;;;;;;;943.40;879.90;;;;;;;13.26;76.47;101874.91;697272;28;44270;-65
2022/10/27 01:14:03;;;;;;;948.53;884.85;;;;;;;13.24;76.11;101871.47;698487;28;21556;-65
2022/10/27 01:14:25;;;;;;;935.25;871.95;;;;;;;13.25;76.35;101877.78;697541;28;46327;-65
2022/10/27 01:14:46;;;;;;;936.50;873.20;;;;;;;13.25;76.20;101881.31;698299;28;22466;-65
2022/10/27 01:15:09;;;;;;;947.03;883.38;;;;;;;13.24;75.99;101874.19;696482;28;45234;-65
2022/10/27 01:15:36;;;;;;;940.67;877.15;;;;;;;13.22;76.42;101873.53;696598;28;69273;-65
2022/10/27 01:16:05;;;;;;;943.50;879.83;;;;;;;13.23;76.29;101869.81;694257;28;138026;-65
2022/10/27 01:16:33;;;;;;;954.05;890.17;;;;;;;13.24;76.37;101870.63;694356;28;138197;-65
2022/10/27 01:17:02;;;;;;;945.33;881.63;;;;;;;13.24;76.11;101870.63;693773;28;137638;-65
2022/10/27 01:17:34;;;;;;;954.92;890.83;;;;;;;13.23;76.11;101877.06;691271;28;136145;-64
2022/10/27 01:18:00;;;;;;;965.70;901.42;;;;;;;13.23;76.29;101877.06;690608;28;160598;-65
2022/10/27 01:18:27;;;;;;;958.65;894.55;;;;;;;13.22;76.20;101878.94;691514;28;138081;-65
2022/10/27 01:18:56;;;;;;;945.42;881.80;;;;;;;13.16;76.29;101863.34;692135;28;157577;-65
2022/10/27 01:19:34;;;;;;;952.30;888.47;;;;;;;13.23;76.50;101880.66;694338;28;137922;-65
2022/10/27 01:20:26;;;;;;;960.08;895.83;;;;;;;13.25;76.51;101877.78;693907;28;137753;-65
2022/10/27 01:21:05;;;;;;;946.03;882.38;;;;;;;13.23;76.08;101880.66;689060;28;160603;-64
2022/10/27 01:21:54;;;;;;;946.95;883.35;;;;;;;13.18;76.04;101874.84;691456;28;137690;-65
2022/10/27 01:22:21;;;;;;;942.55;879.05;;;;;;;13.24;76.25;101878.78;691419;28;138392;-65
2022/10/27 01:22:44;;;;;;;943.40;879.83;;;;;;;13.23;76.14;101880.66;691609;28;138017;-65
2022/10/27 01:23:13;;;;;;;946.17;882.50;;;;;;;13.22;76.29;101875.41;693207;28;92130;-65
2022/10/27 01:23:47;;;;;;;944.85;881.25;;;;;;;13.22;76.18;101878.09;692482;28;136163;-65
2022/10/27 01:24:40;;;;;;;947.55;883.85;;;;;;;13.20;76.38;101872.84;690933;28;158668;-65
2022/10/27 01:25:25;;;;;;;953.42;889.50;;;;;;;13.21;76.50;101877.25;691665;28;138057;-65
2022/10/27 01:26:19;;;;;;;933.42;870.33;;;;;;;13.20;76.21;101870.13;691574;28;137647;-65
2022/10/27 01:26:49;;;;;;;940.97;877.58;;;;;;;13.23;76.21;101875.22;694774;28;60814;-64
2022/10/27 01:27:45;;;;;;;941.20;877.50;;;;;;;13.23;75.93;101875.22;696163;28;67598;-65
2022/10/27 01:28:34;;;;;;;950.00;886.33;;;;;;;13.22;76.38;101876.22;691778;28;137581;-64
2022/10/27 01:29:16;;;;;;;948.63;884.65;;;;;;;13.24;76.47;101871.47;696119;28;157276;-65
2022/10/27 01:30:02;;;;;;;953.10;889.15;;;;;;;13.26;76.46;101879.44;696853;28;138305;-65
2022/10/27 01:30:24;;;;;;;944.08;880.58;;;;;;;13.27;76.27;101878.44;686899;28;135949;-65
2022/10/27 01:30:59;;;;;;;945.97;882.50;;;;;;;13.27;76.24;101875.72;697563;28;44430;-65
2022/10/27 01:31:23;;;;;;;943.50;880.10;;;;;;;13.28;76.46;101880.16;694401;28;137584;-65
2022/10/27 01:31:48;;;;;;;943.10;879.65;;;;;;;13.29;76.61;101880.00;699586;28;68785;-65
2022/10/27 01:32:20;;;;;;;941.08;877.67;;;;;;;13.28;76.20;101883.72;697869;28;114139;-65
2022/10/27 01:32:52;;;;;;;953.22;889.38;;;;;;;13.30;76.34;101881.66;697076;28;137696;-65
2022/10/27 01:33:17;;;;;;;954.53;890.53;;;;;;;13.30;76.04;101884.38;697152;28;136008;-65
2022/10/27 01:33:43;;;;;;;944.38;880.80;;;;;;;13.30;75.90;101881.66;693921;28;138102;-65
2022/10/27 01:34:09;;;;;;;943.17;879.63;;;;;;;13.29;76.31;101880.00;695235;28;115059;-65
2022/10/27 01:34:36;;;;;;;939.40;876.00;;;;;;;13.31;75.93;101882.53;693342;28;159428;-64
2022/10/27 01:35:02;;;;;;;937.60;874.25;;;;;;;13.31;76.09;101882.53;694956;28;160750;-65
2022/10/27 01:35:29;;;;;;;945.47;881.88;;;;;;;13.32;75.98;101882.38;697150;28;136418;-64
2022/10/27 01:35:55;;;;;;;948.13;884.47;;;;;;;13.33;75.88;101883.25;696303;28;159298;-65
2022/10/27 01:36:22;;;;;;;947.63;884.05;;;;;;;13.32;76.29;101886.94;697118;28;138412;-65
2022/10/27 01:36:47;;;;;;;928.03;864.97;;;;;;;13.32;76.00;101882.38;694578;28;160965;-65
2022/10/27 01:37:12;;;;;;;926.72;863.53;;;;;;;13.32;75.70;101884.22;694476;28;116091;-65
2022/10/27 01:37:38;;;;;;;929.88;866.80;;;;;;;13.30;75.34;101886.25;695156;28;115116;-65
2022/10/27 01:38:05;;;;;;;928.90;865.90;;;;;;;13.29;75.62;101884.53;694518;28;137853;-64
2022/10/27 01:38:28;;;;;;;915.35;852.78;;;;;;;13.29;75.28;101887.25;696538;28;137707;-65
2022/10/27 01:38:54;;;;;;;917.53;854.92;;;;;;;13.28;75.53;101885.59;698616;28;89023;-65
2022/10/27 01:39:19;;;;;;;919.22;856.67;;;;;;;13.28;75.42;101883.72;697102;28;138690;-65
2022/10/27 01:39:45;;;;;;;926.25;863.47;;;;;;;13.28;75.25;101882.88;697252;28;115941;-65
2022/10/27 01:40:15;;;;;;;905.08;843.10;;;;;;;13.26;75.64;101883.03;696754;28;138044;-65
2022/10/27 01:40:39;;;;;;;935.60;872.53;;;;;;;13.29;75.58;101890.84;696892;28;137462;-64
2022/10/27 01:41:04;;;;;;;929.55;866.60;;;;;;;13.29;75.42;101874.56;697874;28;115975;-65
2022/10/27 01:41:27;;;;;;;920.45;857.78;;;;;;;13.30;75.40;101878.94;699691;28;63448;-65
2022/10/27 01:41:50;;;;;;;931.00;868.00;;;;;;;13.30;75.72;101886.25;696444;28;92294;-65
2022/10/27 01:42:14;;;;;;;932.22;869.15;;;;;;;13.30;75.71;101886.25;696769;28;69471;-65
2022/10/27 01:42:42;;;;;;;931.65;868.53;;;;;;;13.30;75.43;101875.41;695684;28;92043;-65
2022/10/27 01:43:06;;;;;;;939.45;876.13;;;;;;;13.30;75.85;101878.94;696046;28;137929;-65
2022/10/27 01:43:29;;;;;;;922.13;859.33;;;;;;;13.30;75.91;101878.94;698643;28;92328;-65
2022/10/27 01:43:51;;;;;;;919.17;856.53;;;;;;;13.32;75.74;101881.50;698506;28;89201;-65
2022/10/27 01:44:20;;;;;;;920.92;858.33;;;;;;;13.31;75.76;101883.38;699563;28;67582;-65
2022/10/27 01:44:44;;;;;;;923.70;860.83;;;;;;;13.30;75.65;101875.41;696832;28;136229;-65
2022/10/27 01:45:08;;;;;;;938.60;875.22;;;;;;;13.30;75.48;101878.94;698435;28;92115;-64
2022/10/27 01:45:31;;;;;;;932.00;868.92;;;;;;;13.29;75.77;101877.28;698592;28;90696;-65
2022/10/27 01:45:54;;;;;;;929.90;866.90;;;;;;;13.28;75.72;101875.56;699594;28;67288;-65
2022/10/27 01:46:17;;;;;;;928.67;865.72;;;;;;;13.29;75.83;101880.00;699567;28;69263;-65
2022/10/27 01:46:39;;;;;;;942.50;879.03;;;;;;;13.30;75.78;101878.94;698704;28;92158;-65
2022/10/27 01:47:01;;;;;;;935.22;871.85;;;;;;;13.31;75.53;101877.09;699573;28;44947;-65
2022/10/27 01:47:23;;;;;;;928.95;865.72;;;;;;;13.31;75.55;101877.94;699927;28;46269;-65
2022/10/27 01:47:45;;;;;;;942.97;879.47;;;;;;;13.31;75.87;101874.41;700818;28;23494;-65